sensor_id;sensor_type;location;lat;lon;timestamp;temperature;humidity
24664;DHT22;12791;50.992;13.788;2022-08-24T00:01:19;19.00;99.90
24664;DHT22;12791;50.992;13.788;2022-08-24T00:03:46;18.90;99.90
24664;DHT22;12791;50.992;13.788;2022-08-24T00:06:16;19.00;99.90
24664;DHT22;12791;50.992;13.788;2022-08-24T00:08:45;18.90;99.90
24664;DHT22;12791;50.992;13.788;2022-08-24T00:11:12;19.00;99.90
24664;DHT22;12791;50.992;13.788;2022-08-24T00:13:39;19.00;99.90
24664;DHT22;12791;50.992;13.788;2022-08-24T00:16:07;19.00;99.90
24664;DHT22;12791;50.992;13.788;2022-08-24T00:18:34;19.00;99.90
24664;DHT22;12791;50.992;13.788;2022-08-24T00:21:02;19.00;99.90
24664;DHT22;12791;50.992;13.788;2022-08-24T00:23:30;19.00;99.90
24664;DHT22;12791;50.992;13.788;2022-08-24T00:25:57;19.00;99.90
24664;DHT22;12791;50.992;13.788;2022-08-24T00:28:24;19.00;99.90
24664;DHT22;12791;50.992;13.788;2022-08-24T00:30:51;19.00;99.90
24664;DHT22;12791;50.992;13.788;2022-08-24T00:33:18;19.00;99.90
24664;DHT22;12791;50.992;13.788;2022-08-24T00:35:45;19.00;99.90
24664;DHT22;12791;50.992;13.788;2022-08-24T00:38:11;18.90;99.90
24664;DHT22;12791;50.992;13.788;2022-08-24T00:40:43;18.90;99.90
24664;DHT22;12791;50.992;13.788;2022-08-24T00:43:10;18.90;99.90
24664;DHT22;12791;50.992;13.788;2022-08-24T00:45:43;18.90;99.90
24664;DHT22;12791;50.992;13.788;2022-08-24T00:48:14;18.90;99.90
24664;DHT22;12791;50.992;13.788;2022-08-24T00:50:44;18.90;99.90
24664;DHT22;12791;50.992;13.788;2022-08-24T00:53:27;18.90;99.90
24664;DHT22;12791;50.992;13.788;2022-08-24T00:56:03;18.90;99.90
24664;DHT22;12791;50.992;13.788;2022-08-24T00:58:33;18.90;99.90
24664;DHT22;12791;50.992;13.788;2022-08-24T01:01:03;18.90;99.90
24664;DHT22;12791;50.992;13.788;2022-08-24T01:03:31;18.90;99.90
24664;DHT22;12791;50.992;13.788;2022-08-24T01:05:58;18.90;99.90
24664;DHT22;12791;50.992;13.788;2022-08-24T01:08:25;18.90;99.90
24664;DHT22;12791;50.992;13.788;2022-08-24T01:10:55;18.90;99.90
24664;DHT22;12791;50.992;13.788;2022-08-24T01:13:25;18.90;99.90
24664;DHT22;12791;50.992;13.788;2022-08-24T01:15:56;18.90;99.90
24664;DHT22;12791;50.992;13.788;2022-08-24T01:18:24;18.90;99.90
24664;DHT22;12791;50.992;13.788;2022-08-24T01:21:14;18.90;99.90
24664;DHT22;12791;50.992;13.788;2022-08-24T01:23:44;18.90;99.90
24664;DHT22;12791;50.992;13.788;2022-08-24T01:26:16;18.80;99.90
24664;DHT22;12791;50.992;13.788;2022-08-24T01:28:46;18.80;99.90
24664;DHT22;12791;50.992;13.788;2022-08-24T01:31:13;18.80;99.90
24664;DHT22;12791;50.992;13.788;2022-08-24T01:33:40;18.90;99.90
24664;DHT22;12791;50.992;13.788;2022-08-24T01:36:11;18.90;99.90
24664;DHT22;12791;50.992;13.788;2022-08-24T01:38:41;18.90;99.90
24664;DHT22;12791;50.992;13.788;2022-08-24T01:41:08;18.80;99.90
24664;DHT22;12791;50.992;13.788;2022-08-24T01:43:35;18.90;99.90
24664;DHT22;12791;50.992;13.788;2022-08-24T01:46:02;18.80;99.90
24664;DHT22;12791;50.992;13.788;2022-08-24T01:48:28;18.80;99.90
24664;DHT22;12791;50.992;13.788;2022-08-24T01:50:55;18.80;99.90
24664;DHT22;12791;50.992;13.788;2022-08-24T01:53:22;18.80;99.90
24664;DHT22;12791;50.992;13.788;2022-08-24T01:55:50;18.80;99.90
24664;DHT22;12791;50.992;13.788;2022-08-24T01:58:17;18.80;99.90
24664;DHT22;12791;50.992;13.788;2022-08-24T02:00:44;18.70;99.90
24664;DHT22;12791;50.992;13.788;2022-08-24T02:03:11;18.80;99.90
24664;DHT22;12791;50.992;13.788;2022-08-24T02:05:38;18.80;99.90
24664;DHT22;12791;50.992;13.788;2022-08-24T02:08:04;18.80;99.90
24664;DHT22;12791;50.992;13.788;2022-08-24T02:10:31;18.80;99.90
24664;DHT22;12791;50.992;13.788;2022-08-24T02:13:02;18.80;99.90
24664;DHT22;12791;50.992;13.788;2022-08-24T02:15:31;18.80;99.90
24664;DHT22;12791;50.992;13.788;2022-08-24T02:17:58;18.80;99.90
24664;DHT22;12791;50.992;13.788;2022-08-24T02:20:26;18.80;99.90
24664;DHT22;12791;50.992;13.788;2022-08-24T02:22:53;18.90;99.90
24664;DHT22;12791;50.992;13.788;2022-08-24T02:25:20;18.80;99.90
24664;DHT22;12791;50.992;13.788;2022-08-24T02:27:46;18.90;99.90
24664;DHT22;12791;50.992;13.788;2022-08-24T02:30:15;18.80;99.90
24664;DHT22;12791;50.992;13.788;2022-08-24T02:32:42;18.90;99.90
24664;DHT22;12791;50.992;13.788;2022-08-24T02:35:09;18.90;99.90
24664;DHT22;12791;50.992;13.788;2022-08-24T02:37:36;18.80;99.90
24664;DHT22;12791;50.992;13.788;2022-08-24T02:40:04;18.80;99.90
24664;DHT22;12791;50.992;13.788;2022-08-24T02:42:32;18.80;99.90
24664;DHT22;12791;50.992;13.788;2022-08-24T02:44:59;18.80;99.90
24664;DHT22;12791;50.992;13.788;2022-08-24T02:47:27;18.70;99.90
24664;DHT22;12791;50.992;13.788;2022-08-24T02:49:54;18.80;99.90
24664;DHT22;12791;50.992;13.788;2022-08-24T02:52:21;18.80;99.90
24664;DHT22;12791;50.992;13.788;2022-08-24T02:54:48;18.80;99.90
24664;DHT22;12791;50.992;13.788;2022-08-24T02:57:15;18.80;99.90
24664;DHT22;12791;50.992;13.788;2022-08-24T02:59:42;18.80;99.90
24664;DHT22;12791;50.992;13.788;2022-08-24T03:02:08;18.80;99.90
24664;DHT22;12791;50.992;13.788;2022-08-24T03:04:36;18.80;99.90
24664;DHT22;12791;50.992;13.788;2022-08-24T03:07:03;18.80;99.90
24664;DHT22;12791;50.992;13.788;2022-08-24T03:09:30;18.70;99.90
24664;DHT22;12791;50.992;13.788;2022-08-24T03:11:56;18.80;99.90
24664;DHT22;12791;50.992;13.788;2022-08-24T03:14:23;18.80;99.90
24664;DHT22;12791;50.992;13.788;2022-08-24T03:16:50;18.80;99.90
24664;DHT22;12791;50.992;13.788;2022-08-24T03:19:17;18.80;99.90
24664;DHT22;12791;50.992;13.788;2022-08-24T03:21:45;18.80;99.90
24664;DHT22;12791;50.992;13.788;2022-08-24T03:24:11;18.80;99.90
24664;DHT22;12791;50.992;13.788;2022-08-24T03:26:38;18.70;99.90
24664;DHT22;12791;50.992;13.788;2022-08-24T03:29:05;18.80;99.90
24664;DHT22;12791;50.992;13.788;2022-08-24T03:31:32;18.70;99.90
24664;DHT22;12791;50.992;13.788;2022-08-24T03:33:59;18.70;99.90
24664;DHT22;12791;50.992;13.788;2022-08-24T03:36:25;18.70;99.90
24664;DHT22;12791;50.992;13.788;2022-08-24T03:38:53;18.70;99.90
24664;DHT22;12791;50.992;13.788;2022-08-24T03:41:20;18.70;99.90
24664;DHT22;12791;50.992;13.788;2022-08-24T03:43:47;18.70;99.90
24664;DHT22;12791;50.992;13.788;2022-08-24T03:46:15;18.60;99.90
24664;DHT22;12791;50.992;13.788;2022-08-24T03:48:42;18.60;99.90
24664;DHT22;12791;50.992;13.788;2022-08-24T03:51:11;18.60;99.90
24664;DHT22;12791;50.992;13.788;2022-08-24T03:53:39;18.60;99.90
24664;DHT22;12791;50.992;13.788;2022-08-24T03:56:07;18.70;99.90
24664;DHT22;12791;50.992;13.788;2022-08-24T03:58:34;18.70;99.90
24664;DHT22;12791;50.992;13.788;2022-08-24T04:01:02;18.70;99.90
24664;DHT22;12791;50.992;13.788;2022-08-24T04:03:28;18.70;99.90
24664;DHT22;12791;50.992;13.788;2022-08-24T04:05:55;18.70;99.90
24664;DHT22;12791;50.992;13.788;2022-08-24T04:08:22;18.70;99.90
24664;DHT22;12791;50.992;13.788;2022-08-24T04:10:49;18.70;99.90
24664;DHT22;12791;50.992;13.788;2022-08-24T04:13:17;18.70;99.90
24664;DHT22;12791;50.992;13.788;2022-08-24T04:15:44;18.70;99.90
24664;DHT22;12791;50.992;13.788;2022-08-24T04:18:11;18.70;99.90
24664;DHT22;12791;50.992;13.788;2022-08-24T04:20:39;18.70;99.90
24664;DHT22;12791;50.992;13.788;2022-08-24T04:23:07;18.70;99.90
24664;DHT22;12791;50.992;13.788;2022-08-24T04:25:41;18.70;99.90
24664;DHT22;12791;50.992;13.788;2022-08-24T04:28:09;18.70;99.90
24664;DHT22;12791;50.992;13.788;2022-08-24T04:30:40;18.70;99.90
24664;DHT22;12791;50.992;13.788;2022-08-24T04:33:07;18.70;99.90
24664;DHT22;12791;50.992;13.788;2022-08-24T04:35:37;18.70;99.90
24664;DHT22;12791;50.992;13.788;2022-08-24T04:38:04;18.70;99.90
24664;DHT22;12791;50.992;13.788;2022-08-24T04:40:30;18.70;99.90
24664;DHT22;12791;50.992;13.788;2022-08-24T04:42:57;18.70;99.90
24664;DHT22;12791;50.992;13.788;2022-08-24T04:45:24;18.80;99.90
24664;DHT22;12791;50.992;13.788;2022-08-24T04:47:52;18.80;99.90
24664;DHT22;12791;50.992;13.788;2022-08-24T04:50:19;18.80;99.90
24664;DHT22;12791;50.992;13.788;2022-08-24T04:52:46;18.80;99.90
24664;DHT22;12791;50.992;13.788;2022-08-24T04:55:12;18.80;99.90
24664;DHT22;12791;50.992;13.788;2022-08-24T04:57:39;18.80;99.90
24664;DHT22;12791;50.992;13.788;2022-08-24T05:00:08;18.80;99.90
24664;DHT22;12791;50.992;13.788;2022-08-24T05:02:36;18.80;99.90
24664;DHT22;12791;50.992;13.788;2022-08-24T05:05:06;18.90;99.90
24664;DHT22;12791;50.992;13.788;2022-08-24T05:07:33;18.90;99.90
24664;DHT22;12791;50.992;13.788;2022-08-24T05:10:00;18.90;99.90
24664;DHT22;12791;50.992;13.788;2022-08-24T05:12:27;19.00;99.90
24664;DHT22;12791;50.992;13.788;2022-08-24T05:14:54;19.00;99.90
24664;DHT22;12791;50.992;13.788;2022-08-24T05:17:21;19.00;99.90
24664;DHT22;12791;50.992;13.788;2022-08-24T05:19:47;19.00;99.90
24664;DHT22;12791;50.992;13.788;2022-08-24T05:22:16;19.10;99.90
24664;DHT22;12791;50.992;13.788;2022-08-24T05:24:43;19.10;99.90
24664;DHT22;12791;50.992;13.788;2022-08-24T05:27:10;19.10;99.90
24664;DHT22;12791;50.992;13.788;2022-08-24T05:29:36;19.10;99.90
24664;DHT22;12791;50.992;13.788;2022-08-24T05:32:03;19.10;99.90
24664;DHT22;12791;50.992;13.788;2022-08-24T05:34:30;19.20;99.90
24664;DHT22;12791;50.992;13.788;2022-08-24T05:36:56;19.20;99.90
24664;DHT22;12791;50.992;13.788;2022-08-24T05:39:24;19.20;99.90
24664;DHT22;12791;50.992;13.788;2022-08-24T05:41:51;19.20;99.90
24664;DHT22;12791;50.992;13.788;2022-08-24T05:44:17;19.20;99.90
24664;DHT22;12791;50.992;13.788;2022-08-24T05:46:44;19.20;99.90
24664;DHT22;12791;50.992;13.788;2022-08-24T05:49:11;19.20;99.90
24664;DHT22;12791;50.992;13.788;2022-08-24T05:51:38;19.20;99.90
24664;DHT22;12791;50.992;13.788;2022-08-24T05:54:06;19.20;99.90
24664;DHT22;12791;50.992;13.788;2022-08-24T05:56:35;19.20;99.90
24664;DHT22;12791;50.992;13.788;2022-08-24T05:59:01;19.20;99.90
24664;DHT22;12791;50.992;13.788;2022-08-24T06:01:28;19.20;99.90
24664;DHT22;12791;50.992;13.788;2022-08-24T06:03:56;19.20;99.90
24664;DHT22;12791;50.992;13.788;2022-08-24T06:06:24;19.20;99.90
24664;DHT22;12791;50.992;13.788;2022-08-24T06:08:54;19.20;99.90
24664;DHT22;12791;50.992;13.788;2022-08-24T06:11:22;19.20;99.90
24664;DHT22;12791;50.992;13.788;2022-08-24T06:13:50;19.20;99.90
24664;DHT22;12791;50.992;13.788;2022-08-24T06:16:17;19.30;99.90
24664;DHT22;12791;50.992;13.788;2022-08-24T06:18:44;19.30;99.90
24664;DHT22;12791;50.992;13.788;2022-08-24T06:21:13;19.20;99.90
24664;DHT22;12791;50.992;13.788;2022-08-24T06:23:41;19.20;99.90
24664;DHT22;12791;50.992;13.788;2022-08-24T06:26:09;19.20;99.90
24664;DHT22;12791;50.992;13.788;2022-08-24T06:28:55;19.30;99.90
24664;DHT22;12791;50.992;13.788;2022-08-24T06:31:23;19.30;99.90
24664;DHT22;12791;50.992;13.788;2022-08-24T06:33:50;19.30;99.90
24664;DHT22;12791;50.992;13.788;2022-08-24T06:36:16;19.40;99.90
24664;DHT22;12791;50.992;13.788;2022-08-24T06:38:43;19.40;99.90
24664;DHT22;12791;50.992;13.788;2022-08-24T06:41:10;19.40;99.90
24664;DHT22;12791;50.992;13.788;2022-08-24T06:43:37;19.40;99.90
24664;DHT22;12791;50.992;13.788;2022-08-24T06:46:05;19.40;99.90
24664;DHT22;12791;50.992;13.788;2022-08-24T06:48:32;19.50;99.90
24664;DHT22;12791;50.992;13.788;2022-08-24T06:50:59;19.50;99.90
24664;DHT22;12791;50.992;13.788;2022-08-24T06:53:26;19.50;99.90
24664;DHT22;12791;50.992;13.788;2022-08-24T06:55:55;19.60;99.90
24664;DHT22;12791;50.992;13.788;2022-08-24T06:58:23;19.60;99.90
24664;DHT22;12791;50.992;13.788;2022-08-24T07:00:50;19.70;99.90
24664;DHT22;12791;50.992;13.788;2022-08-24T07:03:18;19.70;99.90
24664;DHT22;12791;50.992;13.788;2022-08-24T07:05:49;19.80;99.90
24664;DHT22;12791;50.992;13.788;2022-08-24T07:08:16;19.80;99.90
24664;DHT22;12791;50.992;13.788;2022-08-24T07:10:43;19.80;99.90
24664;DHT22;12791;50.992;13.788;2022-08-24T07:13:10;19.80;99.90
24664;DHT22;12791;50.992;13.788;2022-08-24T07:15:38;19.80;99.90
24664;DHT22;12791;50.992;13.788;2022-08-24T07:18:05;19.80;99.90
24664;DHT22;12791;50.992;13.788;2022-08-24T07:20:35;19.90;99.90
24664;DHT22;12791;50.992;13.788;2022-08-24T07:23:03;19.90;99.90
24664;DHT22;12791;50.992;13.788;2022-08-24T07:25:30;19.90;99.90
24664;DHT22;12791;50.992;13.788;2022-08-24T07:27:58;20.00;99.90
24664;DHT22;12791;50.992;13.788;2022-08-24T07:30:25;19.90;99.90
24664;DHT22;12791;50.992;13.788;2022-08-24T07:32:51;20.00;99.90
24664;DHT22;12791;50.992;13.788;2022-08-24T07:35:18;20.00;99.90
24664;DHT22;12791;50.992;13.788;2022-08-24T07:37:46;20.00;99.90
24664;DHT22;12791;50.992;13.788;2022-08-24T07:40:13;20.00;99.90
24664;DHT22;12791;50.992;13.788;2022-08-24T07:42:39;20.00;99.90
24664;DHT22;12791;50.992;13.788;2022-08-24T07:45:07;20.00;99.90
24664;DHT22;12791;50.992;13.788;2022-08-24T07:47:33;20.00;99.90
24664;DHT22;12791;50.992;13.788;2022-08-24T07:50:01;20.00;99.90
24664;DHT22;12791;50.992;13.788;2022-08-24T07:52:28;20.00;99.90
24664;DHT22;12791;50.992;13.788;2022-08-24T07:54:57;20.00;99.90
24664;DHT22;12791;50.992;13.788;2022-08-24T07:57:24;20.00;99.90
24664;DHT22;12791;50.992;13.788;2022-08-24T07:59:51;20.00;99.90
24664;DHT22;12791;50.992;13.788;2022-08-24T08:02:18;20.10;99.90
24664;DHT22;12791;50.992;13.788;2022-08-24T08:04:44;20.10;99.90
24664;DHT22;12791;50.992;13.788;2022-08-24T08:07:11;20.10;99.90
24664;DHT22;12791;50.992;13.788;2022-08-24T08:09:39;20.20;99.90
24664;DHT22;12791;50.992;13.788;2022-08-24T08:12:07;20.20;99.90
24664;DHT22;12791;50.992;13.788;2022-08-24T08:14:34;20.20;99.90
24664;DHT22;12791;50.992;13.788;2022-08-24T08:17:01;20.30;99.90
24664;DHT22;12791;50.992;13.788;2022-08-24T08:19:28;20.30;99.90
24664;DHT22;12791;50.992;13.788;2022-08-24T08:21:55;20.30;99.90
24664;DHT22;12791;50.992;13.788;2022-08-24T08:24:40;20.30;99.90
24664;DHT22;12791;50.992;13.788;2022-08-24T08:27:10;20.40;99.90
24664;DHT22;12791;50.992;13.788;2022-08-24T08:29:38;20.40;99.90
24664;DHT22;12791;50.992;13.788;2022-08-24T08:32:05;20.50;99.90
24664;DHT22;12791;50.992;13.788;2022-08-24T08:34:33;20.50;99.90
24664;DHT22;12791;50.992;13.788;2022-08-24T08:37:01;20.50;99.90
24664;DHT22;12791;50.992;13.788;2022-08-24T08:39:28;20.60;99.90
24664;DHT22;12791;50.992;13.788;2022-08-24T08:42:07;20.70;99.90
24664;DHT22;12791;50.992;13.788;2022-08-24T08:44:59;20.70;99.90
24664;DHT22;12791;50.992;13.788;2022-08-24T08:48:03;20.70;99.90
24664;DHT22;12791;50.992;13.788;2022-08-24T08:50:52;20.90;99.90
24664;DHT22;12791;50.992;13.788;2022-08-24T08:53:35;20.90;99.90
24664;DHT22;12791;50.992;13.788;2022-08-24T08:56:11;21.00;99.90
24664;DHT22;12791;50.992;13.788;2022-08-24T08:58:51;21.00;99.90
24664;DHT22;12791;50.992;13.788;2022-08-24T09:01:29;21.00;99.90
24664;DHT22;12791;50.992;13.788;2022-08-24T09:04:10;21.10;99.90
24664;DHT22;12791;50.992;13.788;2022-08-24T09:06:53;21.20;99.90
24664;DHT22;12791;50.992;13.788;2022-08-24T09:09:41;21.20;99.90
24664;DHT22;12791;50.992;13.788;2022-08-24T09:12:14;21.20;99.90
24664;DHT22;12791;50.992;13.788;2022-08-24T09:15:07;21.30;99.90
24664;DHT22;12791;50.992;13.788;2022-08-24T09:17:56;21.30;99.90
24664;DHT22;12791;50.992;13.788;2022-08-24T09:20:45;21.40;99.90
24664;DHT22;12791;50.992;13.788;2022-08-24T09:23:20;21.40;99.90
24664;DHT22;12791;50.992;13.788;2022-08-24T09:25:57;21.30;99.90
24664;DHT22;12791;50.992;13.788;2022-08-24T09:28:35;21.30;99.90
24664;DHT22;12791;50.992;13.788;2022-08-24T09:34:07;21.40;99.90
24664;DHT22;12791;50.992;13.788;2022-08-24T09:36:46;21.40;99.90
24664;DHT22;12791;50.992;13.788;2022-08-24T09:39:26;21.40;99.90
24664;DHT22;12791;50.992;13.788;2022-08-24T09:42:30;21.50;99.90
24664;DHT22;12791;50.992;13.788;2022-08-24T09:45:30;21.40;99.90
24664;DHT22;12791;50.992;13.788;2022-08-24T09:51:14;21.60;99.90
24664;DHT22;12791;50.992;13.788;2022-08-24T09:57:11;21.70;99.90
24664;DHT22;12791;50.992;13.788;2022-08-24T09:59:53;21.70;99.90
24664;DHT22;12791;50.992;13.788;2022-08-24T10:02:44;21.70;99.90
24664;DHT22;12791;50.992;13.788;2022-08-24T10:05:21;21.80;99.90
24664;DHT22;12791;50.992;13.788;2022-08-24T10:08:00;21.90;99.90
24664;DHT22;12791;50.992;13.788;2022-08-24T10:10:38;21.90;99.90
24664;DHT22;12791;50.992;13.788;2022-08-24T10:13:16;22.00;99.90
24664;DHT22;12791;50.992;13.788;2022-08-24T10:15:49;22.00;99.80
24664;DHT22;12791;50.992;13.788;2022-08-24T10:18:26;22.00;98.70
24664;DHT22;12791;50.992;13.788;2022-08-24T10:21:07;22.10;99.00
24664;DHT22;12791;50.992;13.788;2022-08-24T10:23:55;22.10;99.00
24664;DHT22;12791;50.992;13.788;2022-08-24T10:26:32;22.10;99.00
24664;DHT22;12791;50.992;13.788;2022-08-24T10:29:16;22.10;98.90
24664;DHT22;12791;50.992;13.788;2022-08-24T10:32:02;22.10;98.70
24664;DHT22;12791;50.992;13.788;2022-08-24T10:34:38;22.10;98.80
24664;DHT22;12791;50.992;13.788;2022-08-24T10:40:27;22.10;99.10
24664;DHT22;12791;50.992;13.788;2022-08-24T10:43:19;22.20;98.80
24664;DHT22;12791;50.992;13.788;2022-08-24T10:46:38;22.20;98.30
24664;DHT22;12791;50.992;13.788;2022-08-24T10:52:44;22.30;97.90
24664;DHT22;12791;50.992;13.788;2022-08-24T10:55:18;22.40;97.60
24664;DHT22;12791;50.992;13.788;2022-08-24T10:57:56;22.40;97.00
24664;DHT22;12791;50.992;13.788;2022-08-24T11:00:27;22.40;97.20
24664;DHT22;12791;50.992;13.788;2022-08-24T11:03:07;22.50;97.10
24664;DHT22;12791;50.992;13.788;2022-08-24T11:05:39;22.50;97.00
24664;DHT22;12791;50.992;13.788;2022-08-24T11:08:06;22.50;97.00
24664;DHT22;12791;50.992;13.788;2022-08-24T11:10:37;22.60;97.10
24664;DHT22;12791;50.992;13.788;2022-08-24T11:13:20;22.60;97.10
24664;DHT22;12791;50.992;13.788;2022-08-24T11:15:50;22.70;96.90
24664;DHT22;12791;50.992;13.788;2022-08-24T11:18:17;22.70;96.70
24664;DHT22;12791;50.992;13.788;2022-08-24T11:20:46;22.70;96.60
24664;DHT22;12791;50.992;13.788;2022-08-24T11:23:15;22.80;96.80
24664;DHT22;12791;50.992;13.788;2022-08-24T11:25:54;22.80;95.60
24664;DHT22;12791;50.992;13.788;2022-08-24T11:28:27;22.80;95.40
24664;DHT22;12791;50.992;13.788;2022-08-24T11:30:55;22.90;95.80
24664;DHT22;12791;50.992;13.788;2022-08-24T11:33:26;23.00;95.40
24664;DHT22;12791;50.992;13.788;2022-08-24T11:35:54;23.00;95.10
24664;DHT22;12791;50.992;13.788;2022-08-24T11:38:24;23.00;95.40
24664;DHT22;12791;50.992;13.788;2022-08-24T11:40:56;23.00;95.70
24664;DHT22;12791;50.992;13.788;2022-08-24T11:43:40;23.00;95.60
24664;DHT22;12791;50.992;13.788;2022-08-24T11:46:17;23.00;95.50
24664;DHT22;12791;50.992;13.788;2022-08-24T11:48:59;22.90;95.60
24664;DHT22;12791;50.992;13.788;2022-08-24T11:51:36;22.90;95.20
24664;DHT22;12791;50.992;13.788;2022-08-24T11:54:14;22.90;95.00
24664;DHT22;12791;50.992;13.788;2022-08-24T11:56:51;22.90;94.10
24664;DHT22;12791;50.992;13.788;2022-08-24T11:59:42;22.90;94.00
24664;DHT22;12791;50.992;13.788;2022-08-24T12:02:15;22.90;93.80
24664;DHT22;12791;50.992;13.788;2022-08-24T12:04:49;23.00;94.00
24664;DHT22;12791;50.992;13.788;2022-08-24T12:07:28;23.00;94.10
24664;DHT22;12791;50.992;13.788;2022-08-24T12:10:15;23.10;94.00
24664;DHT22;12791;50.992;13.788;2022-08-24T12:12:51;23.20;93.00
24664;DHT22;12791;50.992;13.788;2022-08-24T12:15:26;23.30;93.20
24664;DHT22;12791;50.992;13.788;2022-08-24T12:18:01;23.30;92.80
24664;DHT22;12791;50.992;13.788;2022-08-24T12:20:33;23.40;92.50
24664;DHT22;12791;50.992;13.788;2022-08-24T12:23:03;23.40;92.40
24664;DHT22;12791;50.992;13.788;2022-08-24T12:25:33;23.40;92.70
24664;DHT22;12791;50.992;13.788;2022-08-24T12:28:26;23.40;92.60
24664;DHT22;12791;50.992;13.788;2022-08-24T12:30:57;23.40;93.00
24664;DHT22;12791;50.992;13.788;2022-08-24T12:33:31;23.40;92.50
24664;DHT22;12791;50.992;13.788;2022-08-24T12:36:02;23.40;92.70
24664;DHT22;12791;50.992;13.788;2022-08-24T12:38:33;23.40;93.10
24664;DHT22;12791;50.992;13.788;2022-08-24T12:41:06;23.40;93.70
24664;DHT22;12791;50.992;13.788;2022-08-24T12:43:41;23.40;93.80
24664;DHT22;12791;50.992;13.788;2022-08-24T12:46:10;23.40;92.80
24664;DHT22;12791;50.992;13.788;2022-08-24T12:48:41;23.40;92.90
24664;DHT22;12791;50.992;13.788;2022-08-24T12:51:17;23.50;93.00
24664;DHT22;12791;50.992;13.788;2022-08-24T12:53:58;23.50;92.80
24664;DHT22;12791;50.992;13.788;2022-08-24T12:56:57;23.50;92.90
24664;DHT22;12791;50.992;13.788;2022-08-24T12:59:28;23.50;91.90
24664;DHT22;12791;50.992;13.788;2022-08-24T13:01:59;23.50;92.20
24664;DHT22;12791;50.992;13.788;2022-08-24T13:04:34;23.50;92.20
24664;DHT22;12791;50.992;13.788;2022-08-24T13:07:06;23.50;92.40
24664;DHT22;12791;50.992;13.788;2022-08-24T13:09:35;23.50;92.80
24664;DHT22;12791;50.992;13.788;2022-08-24T13:21:54;23.70;92.50
24664;DHT22;12791;50.992;13.788;2022-08-24T13:24:43;23.70;92.70
24664;DHT22;12791;50.992;13.788;2022-08-24T13:33:26;23.90;92.40
24664;DHT22;12791;50.992;13.788;2022-08-24T13:36:07;24.00;91.30
24664;DHT22;12791;50.992;13.788;2022-08-24T13:39:08;24.00;90.30
24664;DHT22;12791;50.992;13.788;2022-08-24T13:41:45;24.00;90.30
24664;DHT22;12791;50.992;13.788;2022-08-24T13:44:21;24.10;91.00
24664;DHT22;12791;50.992;13.788;2022-08-24T13:46:58;24.10;91.00
24664;DHT22;12791;50.992;13.788;2022-08-24T13:49:48;24.10;91.10
24664;DHT22;12791;50.992;13.788;2022-08-24T13:52:24;24.20;90.20
24664;DHT22;12791;50.992;13.788;2022-08-24T13:55:11;24.20;88.50
24664;DHT22;12791;50.992;13.788;2022-08-24T13:57:43;24.20;89.20
24664;DHT22;12791;50.992;13.788;2022-08-24T14:00:44;24.20;88.70
24664;DHT22;12791;50.992;13.788;2022-08-24T14:03:30;24.20;89.80
24664;DHT22;12791;50.992;13.788;2022-08-24T14:06:15;24.20;89.50
24664;DHT22;12791;50.992;13.788;2022-08-24T14:08:47;24.20;88.50
24664;DHT22;12791;50.992;13.788;2022-08-24T14:11:36;24.20;88.90
24664;DHT22;12791;50.992;13.788;2022-08-24T14:14:07;24.20;90.10
24664;DHT22;12791;50.992;13.788;2022-08-24T14:16:48;24.20;89.30
24664;DHT22;12791;50.992;13.788;2022-08-24T14:19:43;24.20;90.10
24664;DHT22;12791;50.992;13.788;2022-08-24T14:22:26;24.20;90.30
24664;DHT22;12791;50.992;13.788;2022-08-24T14:25:03;24.30;90.20
24664;DHT22;12791;50.992;13.788;2022-08-24T14:27:41;24.30;89.70
24664;DHT22;12791;50.992;13.788;2022-08-24T14:30:41;24.40;88.50
24664;DHT22;12791;50.992;13.788;2022-08-24T14:33:17;24.40;87.70
24664;DHT22;12791;50.992;13.788;2022-08-24T14:36:02;24.50;87.20
24664;DHT22;12791;50.992;13.788;2022-08-24T14:41:34;24.50;87.20
24664;DHT22;12791;50.992;13.788;2022-08-24T14:44:20;24.40;87.60
24664;DHT22;12791;50.992;13.788;2022-08-24T14:46:58;24.40;88.40
24664;DHT22;12791;50.992;13.788;2022-08-24T14:49:33;24.40;87.50
24664;DHT22;12791;50.992;13.788;2022-08-24T14:52:10;24.40;87.80
24664;DHT22;12791;50.992;13.788;2022-08-24T14:54:49;24.40;89.00
24664;DHT22;12791;50.992;13.788;2022-08-24T14:57:43;24.30;87.70
24664;DHT22;12791;50.992;13.788;2022-08-24T15:00:17;24.40;88.00
24664;DHT22;12791;50.992;13.788;2022-08-24T15:06:02;24.50;87.60
24664;DHT22;12791;50.992;13.788;2022-08-24T15:08:33;24.50;84.80
24664;DHT22;12791;50.992;13.788;2022-08-24T15:11:06;24.50;83.50
24664;DHT22;12791;50.992;13.788;2022-08-24T15:13:42;24.50;83.60
24664;DHT22;12791;50.992;13.788;2022-08-24T15:16:15;24.60;84.10
24664;DHT22;12791;50.992;13.788;2022-08-24T15:18:49;24.60;83.70
24664;DHT22;12791;50.992;13.788;2022-08-24T15:21:27;24.70;83.80
24664;DHT22;12791;50.992;13.788;2022-08-24T15:24:04;24.70;83.80
24664;DHT22;12791;50.992;13.788;2022-08-24T15:26:45;24.80;82.70
24664;DHT22;12791;50.992;13.788;2022-08-24T15:29:16;24.80;83.50
24664;DHT22;12791;50.992;13.788;2022-08-24T15:32:00;24.90;84.00
24664;DHT22;12791;50.992;13.788;2022-08-24T15:34:38;24.90;83.60
24664;DHT22;12791;50.992;13.788;2022-08-24T15:37:05;24.90;83.30
24664;DHT22;12791;50.992;13.788;2022-08-24T15:39:32;24.80;84.00
24664;DHT22;12791;50.992;13.788;2022-08-24T15:42:01;24.80;83.80
24664;DHT22;12791;50.992;13.788;2022-08-24T15:44:30;24.70;84.00
24664;DHT22;12791;50.992;13.788;2022-08-24T15:47:00;24.60;84.10
24664;DHT22;12791;50.992;13.788;2022-08-24T15:49:29;24.60;84.60
24664;DHT22;12791;50.992;13.788;2022-08-24T15:52:00;24.70;84.60
24664;DHT22;12791;50.992;13.788;2022-08-24T15:54:33;24.70;85.00
24664;DHT22;12791;50.992;13.788;2022-08-24T15:57:02;24.60;84.40
24664;DHT22;12791;50.992;13.788;2022-08-24T15:59:31;24.60;84.30
24664;DHT22;12791;50.992;13.788;2022-08-24T16:02:35;24.50;83.40
24664;DHT22;12791;50.992;13.788;2022-08-24T16:05:15;24.50;83.70
24664;DHT22;12791;50.992;13.788;2022-08-24T16:08:07;24.50;84.20
24664;DHT22;12791;50.992;13.788;2022-08-24T16:10:38;24.50;84.70
24664;DHT22;12791;50.992;13.788;2022-08-24T16:13:07;24.50;84.20
24664;DHT22;12791;50.992;13.788;2022-08-24T16:15:44;24.40;84.20
24664;DHT22;12791;50.992;13.788;2022-08-24T16:18:13;24.40;84.90
24664;DHT22;12791;50.992;13.788;2022-08-24T16:20:40;24.40;85.00
24664;DHT22;12791;50.992;13.788;2022-08-24T16:23:11;24.50;85.60
24664;DHT22;12791;50.992;13.788;2022-08-24T16:25:40;24.40;85.70